sensor_id;sensor_type;location;lat;lon;timestamp;pressure;altitude;pressure_sealevel;temperature
68127;BMP180;54931;52.098;21.006;2024-01-10T00:00:37;101973.60;;;-9.80
68127;BMP180;54931;52.098;21.006;2024-01-10T00:03:42;101972.20;;;-9.80
68127;BMP180;54931;52.098;21.006;2024-01-10T00:06:30;101969.40;;;-9.84
68127;BMP180;54931;52.098;21.006;2024-01-10T00:09:17;101972.40;;;-9.86
68127;BMP180;54931;52.098;21.006;2024-01-10T00:12:05;101973.40;;;-9.80
68127;BMP180;54931;52.098;21.006;2024-01-10T00:14:52;101975.00;;;-9.70
68127;BMP180;54931;52.098;21.006;2024-01-10T00:17:40;101970.00;;;-9.80
68127;BMP180;54931;52.098;21.006;2024-01-10T00:20:28;101954.80;;;-9.80
68127;BMP180;54931;52.098;21.006;2024-01-10T00:23:15;101946.80;;;-9.80
68127;BMP180;54931;52.098;21.006;2024-01-10T00:26:02;101942.40;;;-9.90
68127;BMP180;54931;52.098;21.006;2024-01-10T00:28:50;101946.80;;;-9.90
68127;BMP180;54931;52.098;21.006;2024-01-10T00:31:37;101944.00;;;-9.94
68127;BMP180;54931;52.098;21.006;2024-01-10T00:34:25;101939.00;;;-10.00
68127;BMP180;54931;52.098;21.006;2024-01-10T00:37:12;101930.20;;;-9.98
68127;BMP180;54931;52.098;21.006;2024-01-10T00:39:59;101942.00;;;-9.92
68127;BMP180;54931;52.098;21.006;2024-01-10T00:42:47;101945.80;;;-9.84
68127;BMP180;54931;52.098;21.006;2024-01-10T00:45:34;101946.20;;;-9.70
68127;BMP180;54931;52.098;21.006;2024-01-10T00:48:22;101941.80;;;-9.70
68127;BMP180;54931;52.098;21.006;2024-01-10T00:51:10;101939.00;;;-9.60
68127;BMP180;54931;52.098;21.006;2024-01-10T00:53:57;101941.00;;;-9.50
68127;BMP180;54931;52.098;21.006;2024-01-10T00:56:44;101947.00;;;-9.40
68127;BMP180;54931;52.098;21.006;2024-01-10T00:59:32;101943.40;;;-9.40
68127;BMP180;54931;52.098;21.006;2024-01-10T01:02:19;101946.60;;;-9.38
68127;BMP180;54931;52.098;21.006;2024-01-10T01:05:07;101954.20;;;-9.30
68127;BMP180;54931;52.098;21.006;2024-01-10T01:07:54;101951.60;;;-9.26
68127;BMP180;54931;52.098;21.006;2024-01-10T01:10:41;101946.20;;;-9.20
68127;BMP180;54931;52.098;21.006;2024-01-10T01:13:29;101949.80;;;-9.10
68127;BMP180;54931;52.098;21.006;2024-01-10T01:16:16;101944.40;;;-9.10
68127;BMP180;54931;52.098;21.006;2024-01-10T01:19:04;101941.60;;;-9.20
68127;BMP180;54931;52.098;21.006;2024-01-10T01:21:51;101947.20;;;-9.20
68127;BMP180;54931;52.098;21.006;2024-01-10T01:24:38;101947.40;;;-9.30
68127;BMP180;54931;52.098;21.006;2024-01-10T01:27:26;101944.60;;;-9.30
68127;BMP180;54931;52.098;21.006;2024-01-10T01:30:13;101942.80;;;-9.40
68127;BMP180;54931;52.098;21.006;2024-01-10T01:33:00;101938.40;;;-9.50
68127;BMP180;54931;52.098;21.006;2024-01-10T01:35:49;101934.20;;;-9.58
68127;BMP180;54931;52.098;21.006;2024-01-10T01:38:37;101926.60;;;-9.60
68127;BMP180;54931;52.098;21.006;2024-01-10T01:41:24;101921.00;;;-9.60
68127;BMP180;54931;52.098;21.006;2024-01-10T01:44:11;101920.40;;;-9.50
68127;BMP180;54931;52.098;21.006;2024-01-10T01:46:59;101919.40;;;-9.50
68127;BMP180;54931;52.098;21.006;2024-01-10T01:49:47;101919.80;;;-9.50
68127;BMP180;54931;52.098;21.006;2024-01-10T01:52:34;101912.80;;;-9.50
68127;BMP180;54931;52.098;21.006;2024-01-10T01:55:22;101910.60;;;-9.50
68127;BMP180;54931;52.098;21.006;2024-01-10T01:58:12;101914.40;;;-9.50
68127;BMP180;54931;52.098;21.006;2024-01-10T02:01:02;101908.80;;;-9.46
68127;BMP180;54931;52.098;21.006;2024-01-10T02:03:49;101903.80;;;-9.42
68127;BMP180;54931;52.098;21.006;2024-01-10T02:06:37;101911.40;;;-9.40
68127;BMP180;54931;52.098;21.006;2024-01-10T02:09:25;101907.60;;;-9.40
68127;BMP180;54931;52.098;21.006;2024-01-10T02:12:13;101905.00;;;-9.40
68127;BMP180;54931;52.098;21.006;2024-01-10T02:15:01;101907.40;;;-9.32
68127;BMP180;54931;52.098;21.006;2024-01-10T02:17:50;101907.80;;;-9.30
68127;BMP180;54931;52.098;21.006;2024-01-10T02:20:38;101910.80;;;-9.30
68127;BMP180;54931;52.098;21.006;2024-01-10T02:23:26;101909.80;;;-9.30
68127;BMP180;54931;52.098;21.006;2024-01-10T02:26:15;101906.80;;;-9.30
68127;BMP180;54931;52.098;21.006;2024-01-10T02:29:03;101903.40;;;-9.30
68127;BMP180;54931;52.098;21.006;2024-01-10T02:31:51;101901.60;;;-9.30
68127;BMP180;54931;52.098;21.006;2024-01-10T02:34:39;101896.00;;;-9.40
68127;BMP180;54931;52.098;21.006;2024-01-10T02:37:27;101895.00;;;-9.40
68127;BMP180;54931;52.098;21.006;2024-01-10T02:40:15;101890.60;;;-9.30
68127;BMP180;54931;52.098;21.006;2024-01-10T02:43:03;101894.80;;;-9.30
68127;BMP180;54931;52.098;21.006;2024-01-10T02:45:51;101887.20;;;-9.30
68127;BMP180;54931;52.098;21.006;2024-01-10T02:48:39;101884.20;;;-9.34
68127;BMP180;54931;52.098;21.006;2024-01-10T02:51:27;101885.20;;;-9.40
68127;BMP180;54931;52.098;21.006;2024-01-10T02:54:16;101876.60;;;-9.48
68127;BMP180;54931;52.098;21.006;2024-01-10T02:57:03;101880.80;;;-9.50
68127;BMP180;54931;52.098;21.006;2024-01-10T02:59:51;101881.40;;;-9.56
68127;BMP180;54931;52.098;21.006;2024-01-10T03:02:39;101871.00;;;-9.60
68127;BMP180;54931;52.098;21.006;2024-01-10T03:05:26;101871.20;;;-9.60
68127;BMP180;54931;52.098;21.006;2024-01-10T03:08:14;101867.60;;;-9.60
68127;BMP180;54931;52.098;21.006;2024-01-10T03:11:02;101871.40;;;-9.52
68127;BMP180;54931;52.098;21.006;2024-01-10T03:14:01;101859.60;;;-9.60
68127;BMP180;54931;52.098;21.006;2024-01-10T03:16:49;101851.00;;;-9.64
68127;BMP180;54931;52.098;21.006;2024-01-10T03:19:37;101845.20;;;-9.72
68127;BMP180;54931;52.098;21.006;2024-01-10T03:22:31;101845.60;;;-9.80
68127;BMP180;54931;52.098;21.006;2024-01-10T03:25:19;101846.60;;;-9.80
68127;BMP180;54931;52.098;21.006;2024-01-10T03:28:06;101852.60;;;-9.82
68127;BMP180;54931;52.098;21.006;2024-01-10T03:30:54;101845.80;;;-9.80
68127;BMP180;54931;52.098;21.006;2024-01-10T03:33:41;101839.20;;;-9.80
68127;BMP180;54931;52.098;21.006;2024-01-10T03:36:28;101838.40;;;-9.80
68127;BMP180;54931;52.098;21.006;2024-01-10T03:39:16;101831.00;;;-9.80
68127;BMP180;54931;52.098;21.006;2024-01-10T03:42:03;101835.60;;;-9.78
68127;BMP180;54931;52.098;21.006;2024-01-10T03:44:51;101839.00;;;-9.70
68127;BMP180;54931;52.098;21.006;2024-01-10T03:47:38;101837.20;;;-9.50
68127;BMP180;54931;52.098;21.006;2024-01-10T03:50:25;101835.80;;;-9.40
68127;BMP180;54931;52.098;21.006;2024-01-10T03:53:13;101830.80;;;-9.30
68127;BMP180;54931;52.098;21.006;2024-01-10T03:56:05;101825.40;;;-9.20
68127;BMP180;54931;52.098;21.006;2024-01-10T03:58:52;101821.80;;;-9.10
68127;BMP180;54931;52.098;21.006;2024-01-10T04:01:39;101827.80;;;-9.10
68127;BMP180;54931;52.098;21.006;2024-01-10T04:04:27;101833.80;;;-9.10
68127;BMP180;54931;52.098;21.006;2024-01-10T04:07:14;101829.40;;;-9.06
68127;BMP180;54931;52.098;21.006;2024-01-10T04:10:02;101830.60;;;-9.06
68127;BMP180;54931;52.098;21.006;2024-01-10T04:12:50;101822.20;;;-9.00
68127;BMP180;54931;52.098;21.006;2024-01-10T04:15:37;101819.40;;;-9.00
68127;BMP180;54931;52.098;21.006;2024-01-10T04:18:24;101816.60;;;-9.10
68127;BMP180;54931;52.098;21.006;2024-01-10T04:21:12;101815.60;;;-9.10
68127;BMP180;54931;52.098;21.006;2024-01-10T04:24:00;101811.20;;;-9.10
68127;BMP180;54931;52.098;21.006;2024-01-10T04:26:47;101815.40;;;-9.10
68127;BMP180;54931;52.098;21.006;2024-01-10T04:29:34;101817.80;;;-9.20
68127;BMP180;54931;52.098;21.006;2024-01-10T04:32:22;101811.80;;;-9.20
68127;BMP180;54931;52.098;21.006;2024-01-10T04:35:09;101811.20;;;-9.20
68127;BMP180;54931;52.098;21.006;2024-01-10T04:37:58;101804.80;;;-9.30
68127;BMP180;54931;52.098;21.006;2024-01-10T04:40:45;101791.60;;;-9.40
68127;BMP180;54931;52.098;21.006;2024-01-10T04:43:32;101793.80;;;-9.40
68127;BMP180;54931;52.098;21.006;2024-01-10T04:46:20;101802.00;;;-9.44
68127;BMP180;54931;52.098;21.006;2024-01-10T04:49:07;101795.80;;;-9.50
68127;BMP180;54931;52.098;21.006;2024-01-10T04:51:55;101800.60;;;-9.50
68127;BMP180;54931;52.098;21.006;2024-01-10T04:54:43;101799.00;;;-9.60
68127;BMP180;54931;52.098;21.006;2024-01-10T04:57:30;101797.00;;;-9.60
68127;BMP180;54931;52.098;21.006;2024-01-10T05:00:18;101802.80;;;-9.52
68127;BMP180;54931;52.098;21.006;2024-01-10T05:03:05;101806.20;;;-9.50
68127;BMP180;54931;52.098;21.006;2024-01-10T05:05:53;101804.60;;;-9.58
68127;BMP180;54931;52.098;21.006;2024-01-10T05:08:40;101800.40;;;-9.60
68127;BMP180;54931;52.098;21.006;2024-01-10T05:11:28;101808.40;;;-9.70
68127;BMP180;54931;52.098;21.006;2024-01-10T05:14:16;101812.40;;;-9.70
68127;BMP180;54931;52.098;21.006;2024-01-10T05:17:04;101812.80;;;-9.74
68127;BMP180;54931;52.098;21.006;2024-01-10T05:19:51;101808.20;;;-9.80
68127;BMP180;54931;52.098;21.006;2024-01-10T05:22:40;101805.20;;;-9.86
68127;BMP180;54931;52.098;21.006;2024-01-10T05:25:28;101807.60;;;-9.90
68127;BMP180;54931;52.098;21.006;2024-01-10T05:28:16;101814.60;;;-10.00
68127;BMP180;54931;52.098;21.006;2024-01-10T05:31:04;101810.00;;;-10.00
68127;BMP180;54931;52.098;21.006;2024-01-10T05:33:52;101811.80;;;-10.00
68127;BMP180;54931;52.098;21.006;2024-01-10T05:36:40;101805.60;;;-10.00
68127;BMP180;54931;52.098;21.006;2024-01-10T05:39:28;101811.60;;;-9.98
68127;BMP180;54931;52.098;21.006;2024-01-10T05:42:15;101804.20;;;-9.92
68127;BMP180;54931;52.098;21.006;2024-01-10T05:45:03;101800.80;;;-9.90
68127;BMP180;54931;52.098;21.006;2024-01-10T05:47:51;101808.40;;;-9.84
68127;BMP180;54931;52.098;21.006;2024-01-10T05:50:39;101810.60;;;-9.80
68127;BMP180;54931;52.098;21.006;2024-01-10T05:53:27;101809.00;;;-9.86
68127;BMP180;54931;52.098;21.006;2024-01-10T05:56:15;101812.60;;;-9.82
68127;BMP180;54931;52.098;21.006;2024-01-10T05:59:02;101812.80;;;-9.80
68127;BMP180;54931;52.098;21.006;2024-01-10T06:01:49;101813.00;;;-9.80
68127;BMP180;54931;52.098;21.006;2024-01-10T06:04:37;101809.20;;;-9.80
68127;BMP180;54931;52.098;21.006;2024-01-10T06:07:24;101801.40;;;-9.80
68127;BMP180;54931;52.098;21.006;2024-01-10T06:10:11;101801.20;;;-9.80
68127;BMP180;54931;52.098;21.006;2024-01-10T06:12:58;101800.00;;;-9.80
68127;BMP180;54931;52.098;21.006;2024-01-10T06:15:46;101798.60;;;-9.80
68127;BMP180;54931;52.098;21.006;2024-01-10T06:18:33;101800.40;;;-9.80
68127;BMP180;54931;52.098;21.006;2024-01-10T06:21:21;101798.00;;;-9.80
68127;BMP180;54931;52.098;21.006;2024-01-10T06:24:08;101793.40;;;-9.78
68127;BMP180;54931;52.098;21.006;2024-01-10T06:26:56;101797.00;;;-9.70
68127;BMP180;54931;52.098;21.006;2024-01-10T06:29:44;101791.80;;;-9.70
68127;BMP180;54931;52.098;21.006;2024-01-10T06:32:32;101787.40;;;-9.60
68127;BMP180;54931;52.098;21.006;2024-01-10T06:35:19;101792.80;;;-9.50
68127;BMP180;54931;52.098;21.006;2024-01-10T06:38:07;101791.80;;;-9.40
68127;BMP180;54931;52.098;21.006;2024-01-10T06:40:55;101786.00;;;-9.30
68127;BMP180;54931;52.098;21.006;2024-01-10T06:43:42;101799.60;;;-9.22
68127;BMP180;54931;52.098;21.006;2024-01-10T06:46:31;101796.40;;;-9.20
68127;BMP180;54931;52.098;21.006;2024-01-10T06:49:19;101799.20;;;-9.20
68127;BMP180;54931;52.098;21.006;2024-01-10T06:52:06;101798.20;;;-9.20
68127;BMP180;54931;52.098;21.006;2024-01-10T06:54:55;101807.00;;;-9.20
68127;BMP180;54931;52.098;21.006;2024-01-10T06:57:42;101806.00;;;-9.30
68127;BMP180;54931;52.098;21.006;2024-01-10T07:00:30;101806.60;;;-9.30
68127;BMP180;54931;52.098;21.006;2024-01-10T07:03:18;101806.20;;;-9.30
68127;BMP180;54931;52.098;21.006;2024-01-10T07:06:06;101810.20;;;-9.32
68127;BMP180;54931;52.098;21.006;2024-01-10T07:08:53;101806.00;;;-9.30
68127;BMP180;54931;52.098;21.006;2024-01-10T07:11:40;101808.60;;;-9.38
68127;BMP180;54931;52.098;21.006;2024-01-10T07:14:28;101807.40;;;-9.30
68127;BMP180;54931;52.098;21.006;2024-01-10T07:17:15;101805.80;;;-9.28
68127;BMP180;54931;52.098;21.006;2024-01-10T07:20:03;101806.20;;;-9.10
68127;BMP180;54931;52.098;21.006;2024-01-10T07:22:52;101812.40;;;-8.90
68127;BMP180;54931;52.098;21.006;2024-01-10T07:25:40;101816.60;;;-8.70
68127;BMP180;54931;52.098;21.006;2024-01-10T07:28:27;101817.40;;;-8.44
68127;BMP180;54931;52.098;21.006;2024-01-10T07:31:15;101815.40;;;-8.38
68127;BMP180;54931;52.098;21.006;2024-01-10T07:34:03;101810.80;;;-8.16
68127;BMP180;54931;52.098;21.006;2024-01-10T07:36:54;101808.80;;;-8.00
68127;BMP180;54931;52.098;21.006;2024-01-10T07:39:41;101808.80;;;-7.90
68127;BMP180;54931;52.098;21.006;2024-01-10T07:42:28;101817.60;;;-7.90
68127;BMP180;54931;52.098;21.006;2024-01-10T07:45:16;101812.20;;;-7.82
68127;BMP180;54931;52.098;21.006;2024-01-10T07:48:04;101800.00;;;-7.70
68127;BMP180;54931;52.098;21.006;2024-01-10T07:50:52;101805.60;;;-7.44
68127;BMP180;54931;52.098;21.006;2024-01-10T07:53:39;101813.40;;;-7.50
68127;BMP180;54931;52.098;21.006;2024-01-10T07:56:26;101812.80;;;-7.40
68127;BMP180;54931;52.098;21.006;2024-01-10T07:59:14;101816.40;;;-7.30
68127;BMP180;54931;52.098;21.006;2024-01-10T08:02:03;101819.20;;;-7.30
68127;BMP180;54931;52.098;21.006;2024-01-10T08:04:52;101816.40;;;-7.20
68127;BMP180;54931;52.098;21.006;2024-01-10T08:07:40;101811.20;;;-6.80
68127;BMP180;54931;52.098;21.006;2024-01-10T08:10:27;101813.00;;;-6.50
68127;BMP180;54931;52.098;21.006;2024-01-10T08:13:15;101820.20;;;-6.14
68127;BMP180;54931;52.098;21.006;2024-01-10T08:16:03;101819.40;;;-6.02
68127;BMP180;54931;52.098;21.006;2024-01-10T08:18:51;101817.00;;;-5.92
68127;BMP180;54931;52.098;21.006;2024-01-10T08:21:38;101814.80;;;-5.90
68127;BMP180;54931;52.098;21.006;2024-01-10T08:24:26;101815.20;;;-5.80
68127;BMP180;54931;52.098;21.006;2024-01-10T08:27:14;101816.80;;;-5.90
68127;BMP180;54931;52.098;21.006;2024-01-10T08:30:02;101819.40;;;-5.80
68127;BMP180;54931;52.098;21.006;2024-01-10T08:32:52;101821.20;;;-5.60
68127;BMP180;54931;52.098;21.006;2024-01-10T08:35:39;101820.60;;;-5.46
68127;BMP180;54931;52.098;21.006;2024-01-10T08:38:27;101827.60;;;-5.20
68127;BMP180;54931;52.098;21.006;2024-01-10T08:41:15;101825.60;;;-4.90
68127;BMP180;54931;52.098;21.006;2024-01-10T08:44:02;101824.60;;;-4.66
68127;BMP180;54931;52.098;21.006;2024-01-10T08:46:49;101826.40;;;-4.58
68127;BMP180;54931;52.098;21.006;2024-01-10T08:49:40;101826.80;;;-4.70
68127;BMP180;54931;52.098;21.006;2024-01-10T08:52:28;101826.60;;;-4.70
68127;BMP180;54931;52.098;21.006;2024-01-10T08:55:15;101821.00;;;-4.50
68127;BMP180;54931;52.098;21.006;2024-01-10T08:58:03;101820.00;;;-4.30
68127;BMP180;54931;52.098;21.006;2024-01-10T09:00:51;101821.20;;;-4.18
68127;BMP180;54931;52.098;21.006;2024-01-10T09:03:38;101812.80;;;-4.00
68127;BMP180;54931;52.098;21.006;2024-01-10T09:06:26;101810.00;;;-3.96
68127;BMP180;54931;52.098;21.006;2024-01-10T09:09:13;101810.60;;;-4.00
68127;BMP180;54931;52.098;21.006;2024-01-10T09:12:01;101818.20;;;-3.80
68127;BMP180;54931;52.098;21.006;2024-01-10T09:14:48;101809.60;;;-3.60
68127;BMP180;54931;52.098;21.006;2024-01-10T09:17:36;101809.20;;;-3.40
68127;BMP180;54931;52.098;21.006;2024-01-10T09:20:24;101808.20;;;-3.24
68127;BMP180;54931;52.098;21.006;2024-01-10T09:23:11;101807.80;;;-3.16
68127;BMP180;54931;52.098;21.006;2024-01-10T09:25:59;101817.80;;;-3.00
68127;BMP180;54931;52.098;21.006;2024-01-10T09:28:47;101822.00;;;-2.74
68127;BMP180;54931;52.098;21.006;2024-01-10T09:31:35;101823.20;;;-2.78
68127;BMP180;54931;52.098;21.006;2024-01-10T09:34:23;101823.40;;;-3.00
68127;BMP180;54931;52.098;21.006;2024-01-10T09:37:10;101824.60;;;-3.00
68127;BMP180;54931;52.098;21.006;2024-01-10T09:39:57;101831.00;;;-3.10
68127;BMP180;54931;52.098;21.006;2024-01-10T09:42:50;101831.40;;;-3.10
68127;BMP180;54931;52.098;21.006;2024-01-10T09:45:46;101821.60;;;-3.30
68127;BMP180;54931;52.098;21.006;2024-01-10T09:48:36;101813.60;;;-3.42
68127;BMP180;54931;52.098;21.006;2024-01-10T09:51:23;101825.00;;;-3.38
68127;BMP180;54931;52.098;21.006;2024-01-10T09:54:10;101825.20;;;-3.34
68127;BMP180;54931;52.098;21.006;2024-01-10T09:56:58;101827.60;;;-3.30
68127;BMP180;54931;52.098;21.006;2024-01-10T09:59:47;101831.20;;;-3.14
68127;BMP180;54931;52.098;21.006;2024-01-10T10:02:35;101831.40;;;-3.34
68127;BMP180;54931;52.098;21.006;2024-01-10T10:05:23;101826.20;;;-3.40
68127;BMP180;54931;52.098;21.006;2024-01-10T10:08:13;101829.40;;;-3.36
68127;BMP180;54931;52.098;21.006;2024-01-10T10:11:13;101832.80;;;-3.10
68127;BMP180;54931;52.098;21.006;2024-01-10T10:14:19;101834.60;;;-2.96
68127;BMP180;54931;52.098;21.006;2024-01-10T10:17:17;101832.80;;;-2.90
68127;BMP180;54931;52.098;21.006;2024-01-10T10:20:06;101838.60;;;-2.74
68127;BMP180;54931;52.098;21.006;2024-01-10T10:23:06;101830.60;;;-3.00
68127;BMP180;54931;52.098;21.006;2024-01-10T10:25:53;101824.80;;;-2.94
68127;BMP180;54931;52.098;21.006;2024-01-10T10:28:41;101824.00;;;-3.00
68127;BMP180;54931;52.098;21.006;2024-01-10T10:31:28;101823.60;;;-3.06
68127;BMP180;54931;52.098;21.006;2024-01-10T10:34:21;101814.60;;;-3.20
68127;BMP180;54931;52.098;21.006;2024-01-10T10:37:11;101813.60;;;-3.40
68127;BMP180;54931;52.098;21.006;2024-01-10T10:39:59;101810.80;;;-3.60
68127;BMP180;54931;52.098;21.006;2024-01-10T10:42:56;101811.20;;;-3.60
68127;BMP180;54931;52.098;21.006;2024-01-10T10:45:50;101808.40;;;-3.70
68127;BMP180;54931;52.098;21.006;2024-01-10T10:48:39;101806.60;;;-3.70
68127;BMP180;54931;52.098;21.006;2024-01-10T10:51:32;101796.80;;;-3.80
68127;BMP180;54931;52.098;21.006;2024-01-10T10:54:28;101782.40;;;-3.96
68127;BMP180;54931;52.098;21.006;2024-01-10T10:57:18;101777.80;;;-4.00
68127;BMP180;54931;52.098;21.006;2024-01-10T11:00:08;101773.20;;;-4.00
68127;BMP180;54931;52.098;21.006;2024-01-10T11:02:58;101767.80;;;-4.10
68127;BMP180;54931;52.098;21.006;2024-01-10T11:05:46;101763.60;;;-4.00
68127;BMP180;54931;52.098;21.006;2024-01-10T11:08:38;101771.00;;;-3.98
68127;BMP180;54931;52.098;21.006;2024-01-10T11:12:20;101772.20;;;-3.90
68127;BMP180;54931;52.098;21.006;2024-01-10T11:23:22;101757.40;;;-3.80
68127;BMP180;54931;52.098;21.006;2024-01-10T11:26:04;101753.00;;;-3.70
68127;BMP180;54931;52.098;21.006;2024-01-10T11:28:52;101747.00;;;-3.70
68127;BMP180;54931;52.098;21.006;2024-01-10T11:31:40;101748.40;;;-3.58
68127;BMP180;54931;52.098;21.006;2024-01-10T11:34:29;101749.00;;;-3.52
68127;BMP180;54931;52.098;21.006;2024-01-10T11:37:16;101741.60;;;-3.50
68127;BMP180;54931;52.098;21.006;2024-01-10T11:40:08;101735.40;;;-3.50
68127;BMP180;54931;52.098;21.006;2024-01-10T11:42:59;101737.80;;;-3.40
68127;BMP180;54931;52.098;21.006;2024-01-10T11:45:55;101735.00;;;-3.40
68127;BMP180;54931;52.098;21.006;2024-01-10T11:48:42;101733.60;;;-3.50
68127;BMP180;54931;52.098;21.006;2024-01-10T11:51:30;101733.80;;;-3.50
68127;BMP180;54931;52.098;21.006;2024-01-10T11:54:44;101722.80;;;-3.46
68127;BMP180;54931;52.098;21.006;2024-01-10T11:57:32;101722.60;;;-3.30
68127;BMP180;54931;52.098;21.006;2024-01-10T12:00:19;101728.40;;;-3.34
68127;BMP180;54931;52.098;21.006;2024-01-10T12:03:08;101725.20;;;-3.32
68127;BMP180;54931;52.098;21.006;2024-01-10T12:05:58;101723.80;;;-3.40
68127;BMP180;54931;52.098;21.006;2024-01-10T12:08:48;101717.00;;;-3.40
68127;BMP180;54931;52.098;21.006;2024-01-10T12:11:36;101713.00;;;-3.50
68127;BMP180;54931;52.098;21.006;2024-01-10T12:14:24;101711.60;;;-3.50
68127;BMP180;54931;52.098;21.006;2024-01-10T12:17:12;101705.20;;;-3.50
68127;BMP180;54931;52.098;21.006;2024-01-10T12:20:00;101714.60;;;-3.50
68127;BMP180;54931;52.098;21.006;2024-01-10T12:22:48;101712.40;;;-3.40
68127;BMP180;54931;52.098;21.006;2024-01-10T12:25:36;101712.80;;;-3.30
68127;BMP180;54931;52.098;21.006;2024-01-10T12:28:23;101713.40;;;-3.28
68127;BMP180;54931;52.098;21.006;2024-01-10T12:31:12;101711.00;;;-3.38
68127;BMP180;54931;52.098;21.006;2024-01-10T12:34:00;101710.00;;;-3.40
68127;BMP180;54931;52.098;21.006;2024-01-10T12:36:48;101703.40;;;-3.36
68127;BMP180;54931;52.098;21.006;2024-01-10T12:39:38;101698.60;;;-3.30
68127;BMP180;54931;52.098;21.006;2024-01-10T12:42:25;101704.20;;;-3.30
68127;BMP180;54931;52.098;21.006;2024-01-10T12:45:31;101707.80;;;-3.20
68127;BMP180;54931;52.098;21.006;2024-01-10T12:48:19;101700.40;;;-3.10
68127;BMP180;54931;52.098;21.006;2024-01-10T12:51:12;101706.00;;;-3.20
68127;BMP180;54931;52.098;21.006;2024-01-10T12:54:00;101700.60;;;-3.44
68127;BMP180;54931;52.098;21.006;2024-01-10T12:56:48;101707.60;;;-3.60
68127;BMP180;54931;52.098;21.006;2024-01-10T12:59:35;101713.00;;;-3.70
68127;BMP180;54931;52.098;21.006;2024-01-10T13:02:22;101705.80;;;-3.80
68127;BMP180;54931;52.098;21.006;2024-01-10T13:05:10;101706.20;;;-3.90
68127;BMP180;54931;52.098;21.006;2024-01-10T13:07:57;101704.40;;;-3.80
68127;BMP180;54931;52.098;21.006;2024-01-10T13:10:46;101701.80;;;-3.86
68127;BMP180;54931;52.098;21.006;2024-01-10T13:13:36;101694.20;;;-3.96
68127;BMP180;54931;52.098;21.006;2024-01-10T13:16:23;101694.80;;;-4.00
68127;BMP180;54931;52.098;21.006;2024-01-10T13:19:11;101687.60;;;-4.10
68127;BMP180;54931;52.098;21.006;2024-01-10T13:21:58;101687.40;;;-4.20
68127;BMP180;54931;52.098;21.006;2024-01-10T13:24:46;101688.80;;;-4.28
68127;BMP180;54931;52.098;21.006;2024-01-10T13:27:34;101686.60;;;-4.30
68127;BMP180;54931;52.098;21.006;2024-01-10T13:30:21;101688.60;;;-4.40
68127;BMP180;54931;52.098;21.006;2024-01-10T13:33:09;101687.40;;;-4.40
68127;BMP180;54931;52.098;21.006;2024-01-10T13:35:57;101682.00;;;-4.40
68127;BMP180;54931;52.098;21.006;2024-01-10T13:38:45;101680.40;;;-4.50
68127;BMP180;54931;52.098;21.006;2024-01-10T13:41:32;101680.00;;;-4.56
68127;BMP180;54931;52.098;21.006;2024-01-10T13:44:20;101679.00;;;-4.60
68127;BMP180;54931;52.098;21.006;2024-01-10T13:47:08;101677.20;;;-4.60
68127;BMP180;54931;52.098;21.006;2024-01-10T13:49:55;101677.40;;;-4.70
68127;BMP180;54931;52.098;21.006;2024-01-10T13:52:43;101677.20;;;-4.70
68127;BMP180;54931;52.098;21.006;2024-01-10T13:55:31;101668.00;;;-4.80
68127;BMP180;54931;52.098;21.006;2024-01-10T13:58:19;101668.00;;;-4.80
68127;BMP180;54931;52.098;21.006;2024-01-10T14:01:07;101657.80;;;-4.90
68127;BMP180;54931;52.098;21.006;2024-01-10T14:03:54;101649.80;;;-4.90
68127;BMP180;54931;52.098;21.006;2024-01-10T14:06:41;101657.20;;;-4.92
68127;BMP180;54931;52.098;21.006;2024-01-10T14:09:30;101657.20;;;-5.00
68127;BMP180;54931;52.098;21.006;2024-01-10T14:12:18;101647.80;;;-5.00
68127;BMP180;54931;52.098;21.006;2024-01-10T14:15:06;101651.40;;;-5.10
68127;BMP180;54931;52.098;21.006;2024-01-10T14:17:53;101652.40;;;-5.12
68127;BMP180;54931;52.098;21.006;2024-01-10T14:20:41;101654.20;;;-5.20
68127;BMP180;54931;52.098;21.006;2024-01-10T14:23:28;101653.60;;;-5.28
68127;BMP180;54931;52.098;21.006;2024-01-10T14:26:15;101643.40;;;-5.30
68127;BMP180;54931;52.098;21.006;2024-01-10T14:29:04;101634.80;;;-5.32
68127;BMP180;54931;52.098;21.006;2024-01-10T14:31:52;101636.40;;;-5.40
68127;BMP180;54931;52.098;21.006;2024-01-10T14:34:40;101640.60;;;-5.50
68127;BMP180;54931;52.098;21.006;2024-01-10T14:37:28;101643.40;;;-5.50
68127;BMP180;54931;52.098;21.006;2024-01-10T14:40:16;101640.00;;;-5.60
68127;BMP180;54931;52.098;21.006;2024-01-10T14:43:03;101637.60;;;-5.70
68127;BMP180;54931;52.098;21.006;2024-01-10T14:45:51;101636.80;;;-5.80
68127;BMP180;54931;52.098;21.006;2024-01-10T14:48:38;101625.80;;;-5.90
68127;BMP180;54931;52.098;21.006;2024-01-10T14:51:26;101625.60;;;-5.90
68127;BMP180;54931;52.098;21.006;2024-01-10T14:54:13;101632.20;;;-5.90
68127;BMP180;54931;52.098;21.006;2024-01-10T14:57:01;101625.60;;;-6.00
68127;BMP180;54931;52.098;21.006;2024-01-10T14:59:49;101622.80;;;-6.10
68127;BMP180;54931;52.098;21.006;2024-01-10T15:02:36;101627.80;;;-6.10
68127;BMP180;54931;52.098;21.006;2024-01-10T15:05:24;101623.00;;;-6.20
68127;BMP180;54931;52.098;21.006;2024-01-10T15:08:12;101613.60;;;-6.30
68127;BMP180;54931;52.098;21.006;2024-01-10T15:11:01;101601.80;;;-6.30
68127;BMP180;54931;52.098;21.006;2024-01-10T15:13:48;101592.80;;;-6.40
68127;BMP180;54931;52.098;21.006;2024-01-10T15:16:36;101596.00;;;-6.50
68127;BMP180;54931;52.098;21.006;2024-01-10T15:19:24;101587.60;;;-6.50
68127;BMP180;54931;52.098;21.006;2024-01-10T15:22:11;101587.80;;;-6.50
68127;BMP180;54931;52.098;21.006;2024-01-10T15:24:58;101577.40;;;-6.60
68127;BMP180;54931;52.098;21.006;2024-01-10T15:27:46;101578.60;;;-6.70
68127;BMP180;54931;52.098;21.006;2024-01-10T15:30:35;101579.80;;;-6.70
68127;BMP180;54931;52.098;21.006;2024-01-10T15:33:22;101582.80;;;-6.70
68127;BMP180;54931;52.098;21.006;2024-01-10T15:36:10;101578.40;;;-6.62
68127;BMP180;54931;52.098;21.006;2024-01-10T15:38:58;101574.40;;;-6.60
68127;BMP180;54931;52.098;21.006;2024-01-10T15:41:47;101572.60;;;-6.70
68127;BMP180;54931;52.098;21.006;2024-01-10T15:44:39;101576.40;;;-6.62
68127;BMP180;54931;52.098;21.006;2024-01-10T15:47:27;101567.60;;;-6.60
68127;BMP180;54931;52.098;21.006;2024-01-10T15:50:15;101575.60;;;-6.60